Time;durP1;ratioP1;P1;durP2;ratioP2;P2;SDS_P1;SDS_P2;PMS_P1;PMS_P2;Temp;Humidity;BMP_temperature;BMP_pressure;BME280_temperature;BME280_humidity;BME280_pressure;Samples;Min_cycle;Max_cycle;Signal;HPM_P1;HPM_P2
2022/08/31 00:04:01;;;;;;;1.67;0.20;;;11.00;81.70;;;;;;4898420;29;20087;-88
2022/08/31 00:06:31;;;;;;;1.33;0.52;;;11.00;82.00;;;;;;4915462;29;20167;-86
2022/08/31 00:08:58;;;;;;;0.40;0.40;;;10.90;82.10;;;;;;4902059;29;20029;-87
2022/08/31 00:11:29;;;;;;;0.98;0.40;;;10.80;81.90;;;;;;4901988;29;20473;-86
2022/08/31 00:13:57;;;;;;;2.22;0.60;;;10.80;82.40;;;;;;4906617;29;20028;-88
2022/08/31 00:16:25;;;;;;;0.47;0.40;;;10.70;82.20;;;;;;4896921;29;20024;-85
2022/08/31 00:18:51;;;;;;;1.10;0.45;;;10.70;82.80;;;;;;4900988;29;20043;-86
2022/08/31 00:21:19;;;;;;;0.90;0.57;;;10.60;82.60;;;;;;4901857;29;20353;-86
2022/08/31 00:23:45;;;;;;;0.40;0.32;;;10.60;82.90;;;;;;4905210;29;20060;-88
2022/08/31 00:26:11;;;;;;;0.60;0.40;;;10.60;83.50;;;;;;4904122;29;20064;-86
2022/08/31 00:28:36;;;;;;;0.95;0.50;;;10.60;83.80;;;;;;4889371;29;20041;-86
2022/08/31 00:31:02;;;;;;;0.88;0.50;;;10.60;84.10;;;;;;4903285;29;20116;-86
2022/08/31 00:33:27;;;;;;;0.65;0.40;;;10.60;83.90;;;;;;4900314;29;20072;-86
2022/08/31 00:35:53;;;;;;;1.88;0.90;;;10.60;84.20;;;;;;4899641;29;20017;-87
2022/08/31 00:38:18;;;;;;;1.45;0.50;;;10.60;84.20;;;;;;4900265;29;20051;-87
2022/08/31 00:40:45;;;;;;;0.93;0.60;;;10.50;84.10;;;;;;4896777;29;20056;-86
2022/08/31 00:43:32;;;;;;;0.30;0.30;;;10.50;84.20;;;;;;4899892;29;20076;-86
2022/08/31 00:45:57;;;;;;;1.00;0.52;;;10.50;84.30;;;;;;4904198;29;20029;-86
2022/08/31 00:48:23;;;;;;;0.28;0.28;;;10.50;84.60;;;;;;4902264;29;20564;-85
2022/08/31 00:50:48;;;;;;;1.02;0.55;;;10.50;85.00;;;;;;4900778;29;20037;-85
2022/08/31 00:53:14;;;;;;;1.17;0.40;;;10.40;84.80;;;;;;4902797;29;20024;-84
2022/08/31 00:55:39;;;;;;;1.00;0.50;;;10.40;84.90;;;;;;4903855;29;20123;-85
2022/08/31 00:58:11;;;;;;;0.65;0.50;;;10.40;85.00;;;;;;4905528;29;20085;-86
2022/08/31 01:00:37;;;;;;;1.23;0.40;;;10.40;85.10;;;;;;4898048;29;20461;-86
2022/08/31 01:03:04;;;;;;;0.95;0.60;;;10.30;85.20;;;;;;4905880;29;20040;-85
2022/08/31 01:05:30;;;;;;;2.17;0.50;;;10.30;85.30;;;;;;4908398;29;20480;-86
2022/08/31 01:07:58;;;;;;;1.20;0.50;;;10.30;85.90;;;;;;4902451;29;20041;-85
2022/08/31 01:10:29;;;;;;;0.30;0.30;;;10.30;85.90;;;;;;4902860;29;20037;-86
2022/08/31 01:12:55;;;;;;;;;;;10.30;85.80;;;;;;4903772;29;20024;-86
2022/08/31 01:15:22;;;;;;;0.70;0.50;;;10.20;85.90;;;;;;4907706;29;19911;-85
2022/08/31 01:17:51;;;;;;;0.80;0.60;;;10.20;85.80;;;;;;4897298;29;20048;-85
2022/08/31 01:20:31;;;;;;;0.55;0.40;;;10.20;86.00;;;;;;4906788;29;20036;-86
2022/08/31 01:23:23;;;;;;;0.30;0.30;;;10.10;86.10;;;;;;4907074;29;20563;-84
2022/08/31 01:25:51;;;;;;;0.75;0.50;;;10.10;86.50;;;;;;4902222;29;20100;-85
2022/08/31 01:28:17;;;;;;;1.20;0.30;;;10.10;86.30;;;;;;4899762;29;20035;-86
2022/08/31 01:30:43;;;;;;;1.50;0.40;;;10.10;86.50;;;;;;4897989;29;20044;-87
2022/08/31 01:33:10;;;;;;;0.68;0.47;;;10.10;86.40;;;;;;4904242;29;20073;-86
2022/08/31 01:35:36;;;;;;;0.40;0.40;;;10.00;86.60;;;;;;4902355;29;20084;-88
2022/08/31 01:38:02;;;;;;;0.98;0.50;;;10.00;86.90;;;;;;4909368;29;20085;-87
2022/08/31 01:40:36;;;;;;;3.58;0.68;;;10.00;87.20;;;;;;4904520;29;20040;-84
2022/08/31 01:43:02;;;;;;;1.02;0.50;;;10.00;87.60;;;;;;4908475;29;20059;-86
2022/08/31 01:45:28;;;;;;;0.47;0.47;;;9.90;87.50;;;;;;4907297;29;20040;-87
2022/08/31 01:47:53;;;;;;;0.57;0.50;;;9.90;87.70;;;;;;4901808;29;20096;-85
2022/08/31 01:50:19;;;;;;;0.70;0.47;;;9.90;88.10;;;;;;4901417;29;20048;-85
2022/08/31 01:52:44;;;;;;;3.72;0.52;;;9.80;88.10;;;;;;4901188;29;20032;-87
2022/08/31 01:55:10;;;;;;;0.90;0.50;;;9.80;88.10;;;;;;4900631;29;20040;-85
2022/08/31 01:57:36;;;;;;;1.25;0.50;;;9.80;88.20;;;;;;4896348;29;20116;-85
2022/08/31 02:00:06;;;;;;;0.63;0.50;;;9.80;88.30;;;;;;4892025;29;20137;-85
2022/08/31 02:02:32;;;;;;;0.90;0.60;;;9.80;88.30;;;;;;4897535;29;20068;-86
2022/08/31 02:04:57;;;;;;;1.30;0.68;;;9.80;88.20;;;;;;4900905;29;20055;-87
2022/08/31 02:07:24;;;;;;;1.70;0.70;;;9.70;88.00;;;;;;4905593;29;20056;-85
2022/08/31 02:09:49;;;;;;;0.70;0.50;;;9.70;88.40;;;;;;4904160;29;20068;-85
2022/08/31 02:12:15;;;;;;;0.60;0.60;;;9.70;88.30;;;;;;4907413;29;20024;-86
2022/08/31 02:14:40;;;;;;;0.60;0.50;;;9.70;88.20;;;;;;4894847;29;20100;-87
2022/08/31 02:17:07;;;;;;;1.35;0.60;;;9.60;88.50;;;;;;4907045;29;20035;-85
2022/08/31 02:19:33;;;;;;;1.50;0.68;;;9.60;88.60;;;;;;4904513;29;20029;-85
2022/08/31 02:21:58;;;;;;;1.27;0.65;;;9.60;88.50;;;;;;4903671;29;20053;-84
2022/08/31 02:24:23;;;;;;;2.25;0.52;;;9.60;88.70;;;;;;4906001;29;20033;-86
2022/08/31 02:26:49;;;;;;;0.70;0.68;;;9.50;88.80;;;;;;4904958;29;20131;-85
2022/08/31 02:29:16;;;;;;;0.50;0.50;;;9.50;89.00;;;;;;4903210;29;20096;-85
2022/08/31 02:31:42;;;;;;;0.43;0.40;;;9.50;89.20;;;;;;4902196;29;20112;-87
2022/08/31 02:34:08;;;;;;;2.10;0.82;;;9.50;89.00;;;;;;4897370;29;20057;-86
2022/08/31 02:36:33;;;;;;;1.83;0.70;;;9.40;89.20;;;;;;4906201;29;20108;-86
2022/08/31 02:38:59;;;;;;;1.38;0.50;;;9.40;89.00;;;;;;4904601;29;20032;-86
2022/08/31 02:41:24;;;;;;;1.08;0.68;;;9.50;89.40;;;;;;4898523;29;20157;-86
2022/08/31 02:43:50;;;;;;;3.08;0.95;;;9.50;89.70;;;;;;4904661;29;20033;-86
2022/08/31 02:46:16;;;;;;;0.70;0.63;;;9.40;89.70;;;;;;4896147;29;20047;-85
2022/08/31 02:48:41;;;;;;;5.20;0.60;;;9.40;89.80;;;;;;4895475;29;20407;-87
2022/08/31 02:51:08;;;;;;;1.33;0.60;;;9.30;89.70;;;;;;4899812;29;20033;-84
2022/08/31 02:53:34;;;;;;;1.65;0.68;;;9.30;89.70;;;;;;4890364;29;20025;-85
2022/08/31 02:56:00;;;;;;;0.75;0.65;;;9.30;89.70;;;;;;4900644;29;20036;-87
2022/08/31 02:58:26;;;;;;;0.93;0.50;;;9.30;89.60;;;;;;4900066;29;20084;-85
2022/08/31 03:00:52;;;;;;;1.77;0.60;;;9.20;89.90;;;;;;4893069;29;21206;-85
2022/08/31 03:03:18;;;;;;;1.60;0.70;;;9.20;89.70;;;;;;4902867;29;20064;-85
2022/08/31 03:05:44;;;;;;;4.93;0.90;;;9.10;89.60;;;;;;4899317;29;20548;-86
2022/08/31 03:08:10;;;;;;;1.20;0.50;;;9.10;89.80;;;;;;4901461;29;20028;-86
2022/08/31 03:10:35;;;;;;;1.88;0.73;;;9.10;89.90;;;;;;4899457;29;20044;-88
2022/08/31 03:13:01;;;;;;;1.17;0.90;;;9.10;90.20;;;;;;4890102;29;20029;-86
2022/08/31 03:15:27;;;;;;;1.15;0.68;;;9.10;90.20;;;;;;4896013;29;20032;-86
2022/08/31 03:17:53;;;;;;;0.95;0.68;;;9.10;90.40;;;;;;4896454;29;20066;-85
2022/08/31 03:20:21;;;;;;;0.65;0.60;;;9.10;90.60;;;;;;4896482;29;20047;-84
2022/08/31 03:22:46;;;;;;;2.22;0.80;;;9.00;90.60;;;;;;4899808;29;20099;-86
2022/08/31 03:25:12;;;;;;;1.38;0.80;;;9.00;91.00;;;;;;4900162;29;20033;-85
2022/08/31 03:27:38;;;;;;;1.88;1.70;;;9.00;91.20;;;;;;4889381;29;20104;-85
2022/08/31 03:30:07;;;;;;;1.92;0.98;;;9.00;91.40;;;;;;4904130;29;20024;-85
2022/08/31 03:32:33;;;;;;;1.63;0.82;;;9.00;91.40;;;;;;4900343;29;20065;-86
2022/08/31 03:35:00;;;;;;;1.73;0.80;;;9.00;91.20;;;;;;4902039;29;20028;-86
2022/08/31 03:37:26;;;;;;;0.90;0.60;;;8.90;90.80;;;;;;4904177;29;20081;-85
2022/08/31 03:39:52;;;;;;;2.50;0.68;;;8.80;90.70;;;;;;4902035;29;20068;-85
2022/08/31 03:42:18;;;;;;;0.95;0.75;;;8.80;90.80;;;;;;4907510;29;20032;-85
2022/08/31 03:44:45;;;;;;;0.95;0.70;;;8.80;90.90;;;;;;4911620;29;20029;-86
2022/08/31 03:47:10;;;;;;;0.93;0.77;;;8.80;91.00;;;;;;4899278;29;20084;-85
2022/08/31 03:49:36;;;;;;;2.72;0.93;;;8.80;91.20;;;;;;4901954;29;20568;-86
2022/08/31 03:52:02;;;;;;;3.05;0.82;;;8.80;91.40;;;;;;4901560;29;20166;-84
2022/08/31 03:54:27;;;;;;;2.65;0.90;;;8.80;91.40;;;;;;4896550;29;20083;-84
2022/08/31 03:56:53;;;;;;;1.60;0.80;;;8.80;91.50;;;;;;4904048;29;20029;-85
2022/08/31 03:59:19;;;;;;;2.10;1.08;;;8.80;91.60;;;;;;4896393;29;20033;-85
2022/08/31 04:01:44;;;;;;;3.33;1.10;;;8.70;91.50;;;;;;4903315;29;20036;-85
2022/08/31 04:04:12;;;;;;;4.90;1.20;;;8.70;91.80;;;;;;4891489;29;20029;-84
2022/08/31 04:06:39;;;;;;;1.90;0.88;;;8.70;91.90;;;;;;4890624;29;20021;-87
2022/08/31 04:09:05;;;;;;;1.65;0.95;;;8.70;91.70;;;;;;4904567;29;20025;-85
2022/08/31 04:11:30;;;;;;;1.15;0.88;;;8.60;91.50;;;;;;4906032;29;20108;-86
2022/08/31 04:13:56;;;;;;;2.58;0.80;;;8.60;91.50;;;;;;4908912;29;20453;-87
2022/08/31 04:16:23;;;;;;;1.90;0.90;;;8.60;91.60;;;;;;4906880;29;20033;-86
2022/08/31 04:19:14;;;;;;;2.58;1.27;;;8.60;91.70;;;;;;4890189;29;20536;-87
2022/08/31 04:22:20;;;;;;;2.38;1.20;;;8.60;91.60;;;;;;4891183;29;20029;-87
2022/08/31 04:25:30;;;;;;;0.98;0.85;;;8.60;91.90;;;;;;4897445;29;20044;-87
2022/08/31 04:28:23;;;;;;;3.55;1.10;;;8.50;91.70;;;;;;4892866;29;20562;-87
2022/08/31 04:31:09;;;;;;;1.55;0.80;;;8.60;91.90;;;;;;4889709;29;20326;-87
2022/08/31 04:33:55;;;;;;;1.80;1.05;;;8.50;91.80;;;;;;4900392;29;20112;-86
2022/08/31 04:36:45;;;;;;;3.65;1.00;;;8.50;91.90;;;;;;4897619;29;20029;-86
2022/08/31 04:39:34;;;;;;;1.20;0.82;;;8.50;91.80;;;;;;4898886;29;20133;-87
2022/08/31 04:42:24;;;;;;;1.00;0.82;;;8.50;91.70;;;;;;4873377;29;20386;-86
2022/08/31 04:45:08;;;;;;;2.70;1.02;;;8.50;91.80;;;;;;4902492;29;20141;-86
2022/08/31 04:47:50;;;;;;;0.93;0.65;;;8.50;91.90;;;;;;4889905;29;20507;-85
2022/08/31 04:53:32;;;;;;;1.48;0.93;;;8.60;92.00;;;;;;4866674;29;20117;-85
2022/08/31 04:56:24;;;;;;;0.75;0.75;;;8.60;92.00;;;;;;4882742;29;20056;-85
2022/08/31 04:59:24;;;;;;;1.88;1.10;;;8.60;92.10;;;;;;4889405;29;20065;-86
2022/08/31 05:01:50;;;;;;;3.67;1.13;;;8.70;92.20;;;;;;4897583;29;20382;-85
2022/08/31 05:04:22;;;;;;;2.08;1.00;;;8.70;92.20;;;;;;4901344;29;20043;-84
2022/08/31 05:07:00;;;;;;;2.15;1.10;;;8.80;92.10;;;;;;4892772;29;20029;-85
2022/08/31 05:09:26;;;;;;;2.58;1.20;;;8.80;92.30;;;;;;4892091;29;20068;-84
2022/08/31 05:11:57;;;;;;;2.70;1.15;;;8.80;92.30;;;;;;4893391;29;20148;-85
2022/08/31 05:14:31;;;;;;;;;;;8.80;92.20;;;;;;4898789;29;20043;-86
2022/08/31 05:17:20;;;;;;;1.85;1.13;;;8.90;92.30;;;;;;4900218;29;20006;-84
2022/08/31 05:19:58;;;;;;;1.90;1.13;;;9.00;92.20;;;;;;4908071;29;20553;-85
2022/08/31 05:22:24;;;;;;;1.60;1.13;;;9.00;92.30;;;;;;4888146;29;20126;-85
2022/08/31 05:24:52;;;;;;;6.05;1.40;;;9.00;92.30;;;;;;4907999;29;20032;-84
2022/08/31 05:27:27;;;;;;;3.65;1.33;;;9.10;92.30;;;;;;4899097;29;20186;-85
2022/08/31 05:30:02;;;;;;;1.67;1.13;;;9.10;92.30;;;;;;4896830;29;20036;-85
2022/08/31 05:32:28;;;;;;;2.05;1.38;;;9.30;92.50;;;;;;4896045;29;20032;-86
2022/08/31 05:35:04;;;;;;;6.55;1.40;;;9.30;92.50;;;;;;4893662;29;20025;-84
2022/08/31 05:37:38;;;;;;;1.67;1.10;;;9.50;92.60;;;;;;4897941;29;20036;-85
2022/08/31 05:40:12;;;;;;;3.58;1.60;;;9.60;92.60;;;;;;4893533;29;20084;-85
2022/08/31 05:43:08;;;;;;;1.88;1.10;;;9.70;92.60;;;;;;4897170;29;20044;-85
2022/08/31 05:51:50;;;;;;;2.05;1.15;;;10.00;92.60;;;;;;4890915;29;20608;-84
2022/08/31 05:54:18;;;;;;;3.58;1.20;;;10.10;92.50;;;;;;4896990;29;20690;-84
2022/08/31 05:56:44;;;;;;;2.78;1.20;;;10.30;92.40;;;;;;4898840;29;20116;-84
2022/08/31 05:59:10;;;;;;;1.75;1.10;;;10.40;92.30;;;;;;4900307;29;20032;-85
2022/08/31 06:01:38;;;;;;;1.98;1.10;;;10.50;92.30;;;;;;4898294;29;20089;-85
2022/08/31 06:04:05;;;;;;;3.30;1.25;;;10.50;92.20;;;;;;4893460;29;20056;-85
2022/08/31 06:06:31;;;;;;;2.03;1.30;;;10.60;92.00;;;;;;4895990;29;20160;-85
2022/08/31 06:08:57;;;;;;;3.13;1.40;;;10.80;91.80;;;;;;4896245;29;20119;-84
2022/08/31 06:11:28;;;;;;;7.65;1.17;;;11.10;91.50;;;;;;4897217;29;20029;-81
2022/08/31 06:13:55;;;;;;;4.25;1.10;;;11.20;91.40;;;;;;4901502;29;20167;-81
2022/08/31 06:16:22;;;;;;;2.47;1.40;;;11.30;91.00;;;;;;4895848;29;20062;-82
2022/08/31 06:18:50;;;;;;;2.63;1.23;;;11.50;90.60;;;;;;4896926;29;20028;-84
2022/08/31 06:21:25;;;;;;;3.17;1.20;;;11.50;90.20;;;;;;4898580;29;20461;-84
2022/08/31 06:23:52;;;;;;;3.97;1.33;;;11.60;90.30;;;;;;4900088;29;20968;-83
2022/08/31 06:26:20;;;;;;;1.63;1.10;;;11.80;90.00;;;;;;4892568;29;20033;-84
2022/08/31 06:28:49;;;;;;;2.47;1.30;;;12.00;89.70;;;;;;4901810;29;20036;-84
2022/08/31 06:31:24;;;;;;;2.13;1.00;;;12.00;89.00;;;;;;4908669;29;20029;-83
2022/08/31 06:33:54;;;;;;;6.00;1.33;;;12.10;89.10;;;;;;4900243;29;20052;-83
2022/08/31 06:36:22;;;;;;;2.60;1.17;;;12.20;89.10;;;;;;4896900;29;20035;-83
2022/08/31 06:38:47;;;;;;;2.63;1.10;;;12.40;89.20;;;;;;4893776;29;20029;-83
2022/08/31 06:41:19;;;;;;;2.95;1.20;;;12.50;88.80;;;;;;4899163;29;20028;-84
2022/08/31 06:43:46;;;;;;;1.83;1.08;;;12.80;88.00;;;;;;4908761;29;20516;-83
2022/08/31 06:46:13;;;;;;;2.33;1.10;;;12.90;87.50;;;;;;4906224;29;20074;-84
2022/08/31 06:48:39;;;;;;;2.05;1.00;;;13.00;87.30;;;;;;4890812;29;20032;-83
2022/08/31 06:51:06;;;;;;;3.60;1.23;;;13.10;87.30;;;;;;4894867;29;22156;-83
2022/08/31 06:53:32;;;;;;;0.95;0.77;;;13.20;87.00;;;;;;4895637;29;20088;-85
2022/08/31 06:56:06;;;;;;;4.00;0.80;;;13.40;86.10;;;;;;4895349;29;20319;-83
2022/08/31 06:58:32;;;;;;;4.63;1.00;;;13.60;85.80;;;;;;4890748;29;20068;-84
2022/08/31 07:01:07;;;;;;;1.60;0.88;;;13.70;85.10;;;;;;4890531;29;20258;-85
2022/08/31 07:03:36;;;;;;;2.80;0.85;;;13.80;84.90;;;;;;4889543;29;20132;-83
2022/08/31 07:06:15;;;;;;;3.50;0.63;;;14.10;83.80;;;;;;4892590;29;20029;-82
2022/08/31 07:08:43;;;;;;;4.07;0.70;;;14.20;83.80;;;;;;4897943;29;20025;-84
2022/08/31 07:11:14;;;;;;;2.22;0.50;;;14.40;83.00;;;;;;4882317;29;20379;-85
2022/08/31 07:13:40;;;;;;;3.10;0.98;;;14.50;82.70;;;;;;4894943;29;20562;-85
2022/08/31 07:16:12;;;;;;;2.35;0.50;;;14.50;82.40;;;;;;4893491;29;20112;-85
2022/08/31 07:18:39;;;;;;;1.63;0.60;;;14.60;81.90;;;;;;4895212;29;20021;-85
2022/08/31 07:21:06;;;;;;;1.23;0.50;;;14.90;80.20;;;;;;4896980;29;20173;-84
2022/08/31 07:23:32;;;;;;;3.05;0.50;;;14.90;80.80;;;;;;4913237;29;20480;-85
2022/08/31 07:26:01;;;;;;;3.45;0.77;;;15.00;80.40;;;;;;4899031;29;20040;-85
2022/08/31 07:28:28;;;;;;;3.20;1.23;;;15.00;80.60;;;;;;4879627;29;20029;-82
2022/08/31 07:30:53;;;;;;;1.77;0.60;;;15.10;80.60;;;;;;4884288;29;20564;-82
2022/08/31 07:33:19;;;;;;;2.30;0.60;;;15.20;80.70;;;;;;4911053;29;20032;-83
2022/08/31 07:35:44;;;;;;;2.50;0.80;;;15.40;79.80;;;;;;4894267;29;20020;-84
2022/08/31 07:43:38;;;;;;;1.85;0.63;;;15.90;76.20;;;;;;4890184;29;20033;-84
2022/08/31 07:46:03;;;;;;;2.40;0.88;;;16.10;76.00;;;;;;4894515;29;20032;-84
2022/08/31 07:48:29;;;;;;;0.90;0.50;;;16.30;76.20;;;;;;4897817;29;20041;-84
2022/08/31 07:50:55;;;;;;;0.93;0.35;;;16.40;74.20;;;;;;4885852;29;20488;-82
2022/08/31 07:53:21;;;;;;;1.23;0.45;;;16.60;72.60;;;;;;4898264;29;20035;-81
2022/08/31 07:55:47;;;;;;;0.65;0.50;;;16.70;71.10;;;;;;4893217;29;20053;-83
2022/08/31 07:58:16;;;;;;;2.47;0.70;;;16.90;71.50;;;;;;4899474;29;20481;-84
2022/08/31 08:00:42;;;;;;;0.68;0.50;;;17.10;71.50;;;;;;4899443;29;20100;-85
2022/08/31 08:03:11;;;;;;;1.60;0.40;;;17.40;69.20;;;;;;4889730;29;20139;-85
2022/08/31 08:05:40;;;;;;;3.88;0.70;;;17.50;69.30;;;;;;4895969;29;20028;-86
2022/08/31 08:08:07;;;;;;;2.80;0.45;;;17.80;68.40;;;;;;4902157;29;20028;-86
2022/08/31 08:10:40;;;;;;;3.30;0.63;;;17.80;67.20;;;;;;4897915;29;20049;-86
2022/08/31 08:13:06;;;;;;;1.63;0.57;;;18.00;66.50;;;;;;4895667;29;20025;-85
2022/08/31 08:15:32;;;;;;;9.15;0.90;;;18.20;65.60;;;;;;4891408;29;20021;-85
2022/08/31 08:17:59;;;;;;;1.02;0.52;;;18.50;64.70;;;;;;4892004;29;20123;-86
2022/08/31 08:20:27;;;;;;;2.50;0.60;;;18.70;64.40;;;;;;4886409;29;20457;-84
2022/08/31 08:22:53;;;;;;;2.88;0.63;;;18.70;64.10;;;;;;4896854;29;20036;-85
2022/08/31 08:25:18;;;;;;;1.92;0.55;;;18.70;62.00;;;;;;4885529;29;20396;-85
2022/08/31 08:27:46;;;;;;;2.53;0.70;;;19.00;63.40;;;;;;4897720;29;20116;-84
2022/08/31 08:30:13;;;;;;;4.03;0.63;;;18.90;60.80;;;;;;4899531;29;20161;-85
2022/08/31 08:32:40;;;;;;;0.98;0.50;;;19.10;62.20;;;;;;4885483;29;20437;-86
2022/08/31 08:35:11;;;;;;;0.52;0.40;;;19.30;61.90;;;;;;4897299;29;20043;-86
2022/08/31 08:37:41;;;;;;;1.63;0.70;;;19.40;60.30;;;;;;4905327;29;20092;-86
2022/08/31 08:40:14;;;;;;;1.33;0.47;;;19.50;59.00;;;;;;4898056;29;20034;-86
2022/08/31 08:42:40;;;;;;;1.45;0.63;;;19.60;58.70;;;;;;4898841;29;20120;-86
2022/08/31 08:45:11;;;;;;;1.55;0.52;;;19.80;59.60;;;;;;4901080;29;20055;-85
2022/08/31 08:47:37;;;;;;;;;;;19.90;59.00;;;;;;4912321;29;20056;-87
2022/08/31 08:50:06;;;;;;;0.80;0.40;;;20.10;57.90;;;;;;4895960;29;19930;-85
2022/08/31 08:52:42;;;;;;;2.03;0.43;;;20.00;58.90;;;;;;4898807;29;20123;-87
2022/08/31 08:55:12;;;;;;;1.15;0.63;;;20.20;58.00;;;;;;4897327;29;20037;-86
2022/08/31 08:57:42;;;;;;;1.65;0.60;;;20.50;57.20;;;;;;4899945;29;20540;-85
2022/08/31 09:00:28;;;;;;;1.13;0.60;;;20.70;55.60;;;;;;4894257;29;20091;-84
2022/08/31 09:03:25;;;;;;;1.42;0.60;;;20.50;55.60;;;;;;4894833;29;20068;-84
2022/08/31 09:06:05;;;;;;;0.57;0.40;;;20.60;56.40;;;;;;4880150;29;20100;-85
2022/08/31 09:09:07;;;;;;;1.67;0.30;;;21.00;54.80;;;;;;4905105;29;20362;-86
2022/08/31 09:12:19;;;;;;;1.25;0.50;;;21.00;51.90;;;;;;4891254;29;20021;-85
2022/08/31 09:15:14;;;;;;;1.50;0.47;;;21.00;51.30;;;;;;4891289;29;20017;-85
2022/08/31 09:18:14;;;;;;;2.22;0.50;;;21.30;49.70;;;;;;4888947;29;20032;-84
2022/08/31 09:20:40;;;;;;;4.78;1.00;;;21.50;49.10;;;;;;4899758;29;20028;-86
2022/08/31 09:23:06;;;;;;;1.80;0.40;;;21.70;50.10;;;;;;4892213;29;20033;-84
2022/08/31 09:25:51;;;;;;;1.08;0.43;;;21.50;48.30;;;;;;4899119;29;20048;-84
2022/08/31 09:28:31;;;;;;;2.03;0.40;;;21.70;48.70;;;;;;4902537;29;20025;-83
2022/08/31 09:30:57;;;;;;;1.13;0.50;;;21.10;48.30;;;;;;4900522;29;20064;-85
2022/08/31 09:33:29;;;;;;;0.65;0.35;;;21.60;48.60;;;;;;4894219;29;20116;-83
2022/08/31 09:36:12;;;;;;;0.82;0.40;;;21.80;48.00;;;;;;4896575;29;20075;-84
2022/08/31 09:38:39;;;;;;;2.53;0.40;;;22.10;49.10;;;;;;4894875;29;20029;-83
2022/08/31 09:41:28;;;;;;;1.40;0.68;;;22.30;47.00;;;;;;4899703;29;20040;-85
2022/08/31 09:44:14;;;;;;;3.53;0.47;;;22.70;47.00;;;;;;4900071;29;20044;-86
2022/08/31 09:46:47;;;;;;;0.45;0.32;;;22.50;46.10;;;;;;4890101;29;20032;-85
2022/08/31 09:49:27;;;;;;;1.33;0.60;;;23.00;46.50;;;;;;4897452;29;20113;-84
2022/08/31 09:55:20;;;;;;;5.78;0.63;;;22.70;47.40;;;;;;4900227;29;20099;-85
2022/08/31 09:57:55;;;;;;;1.27;0.35;;;22.80;46.10;;;;;;4889028;29;20491;-85
2022/08/31 10:00:35;;;;;;;3.00;0.50;;;22.90;46.30;;;;;;4898591;29;20043;-85
2022/08/31 10:03:18;;;;;;;0.47;0.30;;;23.20;44.90;;;;;;4899039;29;20052;-85
2022/08/31 10:05:44;;;;;;;0.63;0.40;;;23.00;43.80;;;;;;4890557;29;20052;-84
2022/08/31 10:08:41;;;;;;;1.17;0.45;;;23.30;45.10;;;;;;4895777;29;20063;-86
2022/08/31 10:11:11;;;;;;;1.50;0.43;;;23.80;45.60;;;;;;4898498;29;20032;-86
2022/08/31 10:13:38;;;;;;;;;;;23.90;44.40;;;;;;4902557;29;20028;-86
2022/08/31 10:16:33;;;;;;;1.05;0.57;;;24.20;44.50;;;;;;4905177;29;19912;-85
2022/08/31 10:19:14;;;;;;;1.85;0.57;;;24.00;43.20;;;;;;4894536;29;20385;-86
2022/08/31 10:21:50;;;;;;;;;;;23.70;42.60;;;;;;4895132;29;20044;-85
2022/08/31 10:24:42;;;;;;;0.63;0.30;;;23.40;43.90;;;;;;4893262;29;19947;-86
2022/08/31 10:27:31;;;;;;;3.03;0.70;;;23.40;42.30;;;;;;4893135;29;20034;-84
2022/08/31 10:30:19;;;;;;;1.83;0.50;;;22.60;44.90;;;;;;4895135;29;20039;-85
2022/08/31 10:33:00;;;;;;;1.33;0.63;;;22.70;45.50;;;;;;4897078;29;20168;-85
2022/08/31 10:35:36;;;;;;;1.15;0.50;;;23.40;43.90;;;;;;4891917;29;20025;-85
2022/08/31 10:38:25;;;;;;;1.23;0.40;;;23.90;43.40;;;;;;4899234;29;20572;-84
2022/08/31 10:41:05;;;;;;;4.20;0.75;;;23.90;43.20;;;;;;4892659;29;20048;-85
2022/08/31 10:43:44;;;;;;;1.45;0.40;;;23.40;44.50;;;;;;4897027;29;20032;-85
2022/08/31 10:46:12;;;;;;;2.72;0.45;;;22.80;45.40;;;;;;4888925;29;20037;-84
2022/08/31 10:48:42;;;;;;;0.68;0.30;;;22.50;46.60;;;;;;4893679;29;20028;-84
2022/08/31 10:51:19;;;;;;;2.38;0.50;;;22.60;46.70;;;;;;4888414;29;20134;-84
2022/08/31 10:54:23;;;;;;;0.98;0.60;;;23.20;44.90;;;;;;4887779;29;20033;-85
2022/08/31 10:56:58;;;;;;;0.45;0.20;;;23.30;42.60;;;;;;4898897;29;20052;-84
2022/08/31 10:59:39;;;;;;;0.90;0.50;;;23.30;42.50;;;;;;4899704;29;20081;-84
2022/08/31 11:02:43;;;;;;;1.15;0.32;;;23.60;42.10;;;;;;4889689;29;20039;-84
2022/08/31 11:05:28;;;;;;;0.40;0.30;;;24.00;40.60;;;;;;4894674;29;20039;-86
2022/08/31 11:08:12;;;;;;;1.25;0.40;;;24.60;41.60;;;;;;4895652;29;20036;-85
2022/08/31 11:10:48;;;;;;;1.77;0.45;;;24.00;41.60;;;;;;4879126;29;20029;-86
2022/08/31 11:13:38;;;;;;;1.13;0.50;;;24.40;41.80;;;;;;4898740;29;20027;-86
2022/08/31 11:16:37;;;;;;;0.82;0.40;;;24.90;41.00;;;;;;4896602;29;20032;-85
2022/08/31 11:19:38;;;;;;;1.60;0.50;;;24.60;39.60;;;;;;4894723;29;20051;-85
2022/08/31 11:22:28;;;;;;;;;;;24.30;39.70;;;;;;4881241;29;20029;-86
2022/08/31 11:25:23;;;;;;;2.78;0.38;;;24.60;40.10;;;;;;4895784;29;20423;-85
2022/08/31 11:28:08;;;;;;;1.02;0.38;;;24.00;40.70;;;;;;4892118;29;20477;-84
2022/08/31 11:30:44;;;;;;;1.23;0.45;;;24.20;41.00;;;;;;4894338;29;20025;-86
2022/08/31 11:33:18;;;;;;;1.13;0.50;;;24.90;40.40;;;;;;4881020;29;20021;-86
2022/08/31 11:35:48;;;;;;;0.98;0.40;;;24.70;39.10;;;;;;4894938;29;20028;-86
2022/08/31 11:38:53;;;;;;;0.73;0.40;;;25.00;39.00;;;;;;4911117;29;20374;-85
2022/08/31 11:41:48;;;;;;;1.38;0.60;;;25.60;39.10;;;;;;4895450;29;20080;-85
2022/08/31 11:44:28;;;;;;;2.30;0.50;;;25.90;38.20;;;;;;4891650;29;20037;-84
2022/08/31 11:47:08;;;;;;;1.23;0.43;;;25.50;38.30;;;;;;4897365;29;20047;-86
2022/08/31 11:49:43;;;;;;;1.05;0.52;;;25.70;39.40;;;;;;4895578;29;20051;-85
2022/08/31 11:52:27;;;;;;;2.60;0.50;;;25.50;39.50;;;;;;4888747;29;20552;-86
2022/08/31 11:54:58;;;;;;;1.75;0.40;;;25.50;38.40;;;;;;4887483;29;20509;-86
2022/08/31 11:57:27;;;;;;;0.85;0.40;;;26.00;38.00;;;;;;4891810;29;20119;-85
2022/08/31 11:59:54;;;;;;;2.30;0.55;;;26.70;38.80;;;;;;4891787;29;20041;-86
2022/08/31 12:02:20;;;;;;;1.63;0.50;;;26.40;38.50;;;;;;4883194;29;20104;-85
2022/08/31 12:04:50;;;;;;;0.47;0.43;;;26.00;38.80;;;;;;4896848;29;20433;-84
2022/08/31 12:07:40;;;;;;;1.67;0.50;;;24.90;40.70;;;;;;4893405;29;20041;-86
2022/08/31 12:10:32;;;;;;;0.75;0.40;;;26.10;38.30;;;;;;4881859;29;20037;-84
2022/08/31 12:13:30;;;;;;;1.33;0.50;;;26.50;36.30;;;;;;4883005;29;20052;-85
2022/08/31 12:15:59;;;;;;;0.70;0.30;;;26.70;37.70;;;;;;4892398;29;20029;-86
2022/08/31 12:18:34;;;;;;;1.00;0.50;;;27.20;36.20;;;;;;4882910;29;20132;-86
2022/08/31 12:24:36;;;;;;;1.80;0.50;;;26.00;38.30;;;;;;4884751;29;20103;-86
2022/08/31 12:27:50;;;;;;;1.42;0.50;;;26.60;37.50;;;;;;4880402;29;20041;-85
2022/08/31 12:30:24;;;;;;;0.90;0.40;;;27.20;36.70;;;;;;4802073;29;20051;-87
2022/08/31 12:33:13;;;;;;;2.40;0.57;;;26.30;37.20;;;;;;4877499;29;20032;-86
2022/08/31 12:35:39;;;;;;;1.70;0.40;;;25.80;39.60;;;;;;4880518;29;20120;-86
2022/08/31 12:38:17;;;;;;;0.70;0.45;;;25.20;39.70;;;;;;4880461;29;20455;-87
2022/08/31 12:40:53;;;;;;;1.55;0.57;;;26.00;38.20;;;;;;4897681;29;20044;-86
2022/08/31 12:43:23;;;;;;;0.88;0.43;;;26.40;36.90;;;;;;4881776;29;20116;-87
2022/08/31 12:46:04;;;;;;;0.70;0.43;;;26.50;35.10;;;;;;4883439;29;20522;-85
2022/08/31 12:48:57;;;;;;;2.58;0.52;;;26.80;36.40;;;;;;4884347;29;20037;-86
2022/08/31 12:51:48;;;;;;;1.02;0.22;;;27.40;35.10;;;;;;4892854;29;20021;-86
2022/08/31 12:54:32;;;;;;;0.77;0.40;;;27.50;36.30;;;;;;4887885;29;20021;-86
2022/08/31 12:56:57;;;;;;;0.52;0.35;;;28.00;34.50;;;;;;4902133;29;20028;-85
2022/08/31 12:59:31;;;;;;;0.90;0.47;;;28.20;33.40;;;;;;4891446;29;20544;-85
2022/08/31 13:01:59;;;;;;;2.60;0.57;;;28.10;34.20;;;;;;4893474;29;20474;-84
2022/08/31 13:04:25;;;;;;;1.52;0.52;;;29.00;33.70;;;;;;4890660;29;20080;-85
2022/08/31 13:06:51;;;;;;;0.68;0.30;;;29.70;32.10;;;;;;4894300;29;20089;-84
2022/08/31 13:09:36;;;;;;;0.38;0.30;;;30.30;32.00;;;;;;4897178;29;20057;-85
2022/08/31 13:12:02;;;;;;;2.63;0.60;;;29.40;32.50;;;;;;4894957;29;20041;-84
2022/08/31 13:14:38;;;;;;;1.73;0.65;;;28.80;33.20;;;;;;4896447;29;20024;-85
2022/08/31 13:17:14;;;;;;;1.17;0.50;;;27.70;34.30;;;;;;4893126;29;20056;-86
2022/08/31 13:19:46;;;;;;;1.48;0.50;;;27.40;36.40;;;;;;4885785;29;20040;-87
2022/08/31 13:22:15;;;;;;;1.05;0.50;;;28.10;35.70;;;;;;4886811;29;20024;-86
2022/08/31 13:24:45;;;;;;;1.55;0.32;;;29.00;32.10;;;;;;4894470;29;20605;-86
2022/08/31 13:27:24;;;;;;;1.77;0.50;;;29.70;33.00;;;;;;4890996;29;20112;-85
2022/08/31 13:29:52;;;;;;;3.05;0.60;;;30.10;31.70;;;;;;4893246;29;20450;-86
2022/08/31 13:32:31;;;;;;;1.27;0.20;;;30.80;29.90;;;;;;4895803;29;20361;-86
2022/08/31 13:35:09;;;;;;;1.52;0.40;;;30.50;30.30;;;;;;4902294;29;20424;-86
2022/08/31 13:37:58;;;;;;;0.90;0.40;;;28.50;32.60;;;;;;4899788;29;20029;-86
2022/08/31 13:40:28;;;;;;;1.60;0.30;;;26.70;35.10;;;;;;4901848;29;20072;-83
2022/08/31 13:42:55;;;;;;;1.95;0.60;;;26.20;36.20;;;;;;4890835;29;20429;-84
2022/08/31 13:45:34;;;;;;;0.63;0.47;;;25.60;36.90;;;;;;4894012;29;20033;-84